Dighton, MA

10:40 PM EDT on September 30, 2016 (GMT -0400)
Richmond Hill | | Change Station

Elev 140 ft 41.81 °N, 71.13 °W | Updated 10 minutes ago

Light Rain
Light Rain Mist
56.9 °F
Feels Like 56.9 °F
N
7.0
Wind Variable Wind from ENE

Today
High -- | Low -- °F
--% Chance of Precip.
Yesterday
High -- | Low -- °F
Precip. -- in
Pressure 30.33 in
Visibility 3.0 miles
Clouds Mostly Cloudy 800 ft
Overcast 1200 ft
Dew Point 55 °F
Humidity 92%
Rainfall 0.40 in
Snow Depth Not available.
6:40 AM 6:27 PM
New Moon, 0% visible
SPECI KTAN 010238Z AUTO 05004KT 3SM -RA BR BKN008 OVC012 14/13 A3033 RMK AO2 P0005 T01440133
Pressure 30.33 in
Visibility 3.0 miles
Clouds Mostly Cloudy 800 ft
Overcast 1200 ft
Dew Point 55 °F
Humidity 92%
Rainfall 0.40 in
Snow Depth Not available.
6:40 AM 6:27 PM
New Moon, 0% visible
SPECI KTAN 010238Z AUTO 05004KT 3SM -RA BR BKN008 OVC012 14/13 A3033 RMK AO2 P0005 T01440133

10-Day Weather Forecast

Almanac

Astronomy

Sep. 30, 2016 Rise Set
Actual Time
Civil Twilight
Nautical Twilight
Astronomical Twilight
Moon
Length of Visible Light
Length of Day
Tomorrow will be .
, % of the Moon is Illuminated

Today's Extremes

State Highs State Lows

Community

WunderPhotos

Upload Photos

1,942,875 photos uploaded!

WunderBlog® & News

Nearby

Air Quality

  Air Quality AQ Index Pollutant
Not available.

Snow Depth

Station Depth Elevation

Earthquake Activity

City Distance Mag. Time & Date
Minimum magnitude displayed is 2.5.

Coastal Water Temperatures

Place Temperature

Stations

Nearby Weather Stations

Station Location Temp. Windchill Dew Point Humidity Wind Precip. Elev Updated Type
                   

Watches & Warnings

There are currently no watches in effect.